WHISKEYTOWN DAM (USBR) (WHI)

Elevation: 1210' · SACRAMENTO R basin · Operator: US Bureau of Reclamation

Provisional data, subject to change.
Query executed Tuesday at 17:41:47   clock

Select a sensor type for a plot of data.
Note: Reservoir Flows are daily averages.

Earlier

Date RES ELE    STORAGE    RES CHG    OUTFLOW    INFLOW    EVAP    RIV REL    PPT INC    RAIN    SPILL    DIS PWR   
 FEET   AF   AF   CFS   CFS   CFS   CFS   INCHES   INCHES   CFS   CFS  
03/02/2015 1199.03 207244 177 195 288 4 181 0.00 46.32 0 14
03/03/2015 1199.05 207304 60 195 226 1 181 0.01 46.33 0 14
03/04/2015 1199.05 207304 0 204 207 3 181 0.00 46.33 0 23
03/05/2015 1199.06 207333 29 195 214 4 181 0.00 46.33 0 14
03/06/2015 1199.05 207304 -29 195 185 5 181 0.00 46.33 0 14
03/07/2015 1199.04 207274 -30 199 189 5 181 0.00 46.33 0 18
03/08/2015 1198.68 206212 -1062 732 207 10 181 0.00 46.33 0 551
03/09/2015 1198.65 206124 -88 203 165 6 181 0.00 46.33 0 22
03/10/2015 1198.64 206094 -30 196 188 7 181 0.00 46.33 0 15
03/11/2015 1198.60 205977 -117 230 175 4 181 0.22 46.55 0 49
03/12/2015 1198.56 205859 -118 228 169 0 182 0.30 46.85 0 46
03/13/2015 1198.51 205711 -148 206 134 3 182 0.00 46.85 0 24
03/14/2015 1198.50 205682 -29 196 186 5 182 0.02 46.87 0 14
03/15/2015 1198.49 205653 -29 196 181 0 182 0.04 46.91 0 14
03/16/2015 1198.45 205535 -118 209 150 0 182 0.33 47.24 0 27
03/17/2015 1198.43 205476 -59 196 166 0 182 0.02 47.26 0 14
03/18/2015 1198.33 205181 -295 294 150 5 182 0.00 47.26 0 112
03/19/2015 1198.29 205063 -118 196 144 7 182 0.00 47.26 0 14
03/20/2015 1198.25 204946 -117 196 145 8 182 0.00 47.26 0 14
03/21/2015 1198.21 204828 -118 196 138 1 182 0.00 47.26 0 14
03/22/2015 1198.21 204828 0 199 200 1 182 0.00 47.26 0 17
03/23/2015 1198.18 204739 -89 197 155 3 182 0.55 47.81 0 15
03/24/2015 1198.13 204592 -147 199 128 3 182 0.03 47.84 0 17
03/25/2015 1198.08 204445 -147 201 128 1 181 0.01 47.85 0 20
03/26/2015 1198.44 205505 1060 195 734 5 181 0.00 47.85 0 14
03/27/2015 1198.55 205829 324 195 370 12 181 0.00 47.85 0 14
03/28/2015 1198.49 205653 -176 217 140 12 181 0.00 47.85 0 36
03/29/2015 1198.42 205446 -207 202 99 1 181 0.00 47.85 0 21
03/30/2015 1198.33 205181 -265 198 75 11 181 0.00 47.85 0 17
03/31/2015 -- -- -- -- -- -- -- -- -- -- --

Later | Latest

Warning! This data is preliminary and subject to revision.

Show WHI Map | Plot WHI Data | 1 Month WHI Data | Real-Time WHI Data | WHI Info